Time;durP1;ratioP1;P1;durP2;ratioP2;P2;SDS_P1;SDS_P2;PMS_P1;PMS_P2;Temp;Humidity;BMP_temperature;BMP_pressure;BME280_temperature;BME280_humidity;BME280_pressure;Samples;Min_cycle;Max_cycle;Signal;HPM_P1;HPM_P2
2023/11/26 00:00:43;;;;;;;18.77;11.85;;;;;;;;;;775810;177;865564;-63
2023/11/26 00:03:07;;;;;;;21.27;12.40;;;;;;;;;;776627;180;918944;-70
2023/11/26 00:05:33;;;;;;;17.37;12.30;;;;;;;;;;770638;180;816615;-64
2023/11/26 00:07:59;;;;;;;17.13;12.30;;;;;;;;;;767968;180;916222;-70
2023/11/26 00:10:24;;;;;;;20.30;12.50;;;;;;;;;;773651;178;921170;-64
2023/11/26 00:12:52;;;;;;;22.70;11.80;;;;;;;;;;778302;180;915147;-64
2023/11/26 00:15:16;;;;;;;24.23;13.00;;;;;;;;;;766756;181;919047;-70
2023/11/26 00:17:42;;;;;;;54.20;15.10;;;;;;;;;;765655;181;919144;-70
2023/11/26 00:20:09;;;;;;;17.10;13.10;;;;;;;;;;777352;180;916240;-70
2023/11/26 00:22:34;;;;;;;22.90;13.60;;;;;;;;;;774893;178;817496;-70
2023/11/26 00:25:00;;;;;;;21.90;13.20;;;;;;;;;;771881;179;918336;-70
2023/11/26 00:27:26;;;;;;;19.70;12.13;;;;;;;;;;777830;180;817330;-63
2023/11/26 00:29:51;;;;;;;21.23;13.23;;;;;;;;;;775459;178;992523;-62
2023/11/26 00:32:17;;;;;;;20.83;13.63;;;;;;;;;;771879;179;1022892;-69
2023/11/26 00:34:43;;;;;;;19.97;11.80;;;;;;;;;;761792;180;918920;-69
2023/11/26 00:37:09;;;;;;;22.62;12.73;;;;;;;;;;772359;181;917578;-70
2023/11/26 00:39:35;;;;;;;20.87;13.03;;;;;;;;;;768645;180;897997;-70
2023/11/26 00:42:01;;;;;;;20.40;12.53;;;;;;;;;;767311;181;924531;-64
2023/11/26 00:44:27;;;;;;;21.70;14.20;;;;;;;;;;778112;180;917531;-63
2023/11/26 00:46:53;;;;;;;22.13;12.77;;;;;;;;;;776219;178;918991;-64
2023/11/26 00:49:18;;;;;;;18.80;13.13;;;;;;;;;;773490;178;918470;-63
2023/11/26 00:51:44;;;;;;;19.90;13.33;;;;;;;;;;781121;180;918364;-63
2023/11/26 00:54:10;;;;;;;21.93;12.47;;;;;;;;;;771804;180;919059;-63
2023/11/26 00:56:36;;;;;;;20.13;12.00;;;;;;;;;;775901;178;918650;-71
2023/11/26 00:59:02;;;;;;;16.70;10.57;;;;;;;;;;778855;180;830175;-70
2023/11/26 01:01:28;;;;;;;18.73;12.80;;;;;;;;;;774561;180;892085;-70
2023/11/26 01:03:53;;;;;;;28.62;14.52;;;;;;;;;;775728;178;919262;-63
2023/11/26 01:06:19;;;;;;;24.23;15.50;;;;;;;;;;769234;180;919015;-71
2023/11/26 01:08:45;;;;;;;20.00;12.30;;;;;;;;;;777526;180;919182;-64
2023/11/26 01:11:12;;;;;;;24.80;14.43;;;;;;;;;;776764;178;870271;-71
2023/11/26 01:13:37;;;;;;;28.90;14.00;;;;;;;;;;764900;181;907304;-71
2023/11/26 01:16:03;;;;;;;22.80;13.27;;;;;;;;;;775192;180;902660;-64
2023/11/26 01:18:29;;;;;;;22.30;12.90;;;;;;;;;;776508;177;914417;-71
2023/11/26 01:20:55;;;;;;;19.23;12.30;;;;;;;;;;772629;180;921391;-70
2023/11/26 01:23:21;;;;;;;19.30;11.67;;;;;;;;;;776471;178;927236;-71
2023/11/26 01:25:47;;;;;;;24.07;12.87;;;;;;;;;;769566;181;917557;-70
2023/11/26 01:28:13;;;;;;;19.90;12.30;;;;;;;;;;769502;181;919117;-70
2023/11/26 01:30:38;;;;;;;18.70;12.60;;;;;;;;;;769713;180;921381;-70
2023/11/26 01:33:04;;;;;;;20.57;12.70;;;;;;;;;;773335;180;918509;-64
2023/11/26 01:35:30;;;;;;;27.27;12.80;;;;;;;;;;768737;180;919992;-64
2023/11/26 01:37:56;;;;;;;24.50;13.77;;;;;;;;;;749531;179;919068;-64
2023/11/26 01:40:22;;;;;;;19.60;13.17;;;;;;;;;;776526;180;912677;-64
2023/11/26 01:42:48;;;;;;;18.30;13.53;;;;;;;;;;775999;180;912005;-70
2023/11/26 01:45:14;;;;;;;26.10;14.27;;;;;;;;;;771046;180;918824;-64
2023/11/26 01:47:40;;;;;;;24.33;13.60;;;;;;;;;;776651;180;916571;-64
2023/11/26 01:50:06;;;;;;;26.20;13.50;;;;;;;;;;773150;178;920110;-65
2023/11/26 01:52:32;;;;;;;22.77;14.20;;;;;;;;;;766004;181;917809;-71
2023/11/26 01:54:58;;;;;;;19.57;14.17;;;;;;;;;;771374;180;919721;-68
2023/11/26 01:57:24;;;;;;;20.73;13.50;;;;;;;;;;774920;180;919006;-70
2023/11/26 01:59:49;;;;;;;17.97;12.17;;;;;;;;;;776058;177;919332;-64
2023/11/26 02:02:15;;;;;;;16.40;11.88;;;;;;;;;;776831;180;1021537;-70
2023/11/26 02:04:41;;;;;;;19.50;11.43;;;;;;;;;;782879;180;816268;-69
2023/11/26 02:07:07;;;;;;;17.43;12.00;;;;;;;;;;774787;180;918386;-70
2023/11/26 02:09:33;;;;;;;22.07;13.60;;;;;;;;;;775697;180;917196;-64
2023/11/26 02:11:59;;;;;;;21.80;13.43;;;;;;;;;;778915;180;914869;-72
2023/11/26 02:14:25;;;;;;;23.33;12.27;;;;;;;;;;763140;177;910874;-70
2023/11/26 02:16:50;;;;;;;17.60;12.13;;;;;;;;;;769105;179;918882;-71
2023/11/26 02:19:22;;;;;;;17.73;11.60;;;;;;;;;;779150;177;914293;-71
2023/11/26 02:21:48;;;;;;;17.43;13.20;;;;;;;;;;776766;178;916199;-65
2023/11/26 02:24:14;;;;;;;23.80;13.00;;;;;;;;;;771833;178;919095;-65
2023/11/26 02:26:40;;;;;;;21.37;13.70;;;;;;;;;;772856;180;918757;-65
2023/11/26 02:29:08;;;;;;;22.00;13.87;;;;;;;;;;774523;180;919996;-71
2023/11/26 02:31:31;;;;;;;21.87;13.87;;;;;;;;;;775911;180;817997;-71
2023/11/26 02:33:57;;;;;;;20.27;13.67;;;;;;;;;;769163;179;1020152;-65
2023/11/26 02:36:25;;;;;;;23.03;15.87;;;;;;;;;;778922;180;918996;-74
2023/11/26 02:38:50;;;;;;;25.97;13.00;;;;;;;;;;774125;181;854967;-71
2023/11/26 02:41:15;;;;;;;22.43;14.03;;;;;;;;;;776047;180;924377;-71
2023/11/26 02:43:41;;;;;;;24.10;14.07;;;;;;;;;;773815;180;918548;-70
2023/11/26 02:46:07;;;;;;;23.40;13.43;;;;;;;;;;768311;181;917826;-65
2023/11/26 02:48:33;;;;;;;22.17;13.73;;;;;;;;;;769690;180;1016413;-64
2023/11/26 02:50:59;;;;;;;24.80;12.77;;;;;;;;;;773236;180;918581;-66
2023/11/26 02:53:25;;;;;;;23.03;14.40;;;;;;;;;;777220;180;918538;-64
2023/11/26 02:55:51;;;;;;;17.00;11.83;;;;;;;;;;771186;181;923107;-64
2023/11/26 02:58:16;;;;;;;22.63;13.73;;;;;;;;;;775458;180;914297;-64
2023/11/26 03:00:42;;;;;;;23.03;14.37;;;;;;;;;;777931;180;873160;-71
2023/11/26 03:03:09;;;;;;;20.60;13.37;;;;;;;;;;778826;178;914299;-72
2023/11/26 03:05:34;;;;;;;21.73;14.40;;;;;;;;;;769024;180;919372;-70
2023/11/26 03:08:09;;;;;;;23.90;15.38;;;;;;;;;;776406;178;920718;-69
2023/11/26 03:15:30;;;;;;;22.13;13.97;;;;;;;;;;772130;180;886661;-64
2023/11/26 03:17:56;;;;;;;20.08;13.70;;;;;;;;;;775240;180;939711;-65
2023/11/26 03:20:21;;;;;;;23.23;13.70;;;;;;;;;;775262;181;917198;-70
2023/11/26 03:22:47;;;;;;;20.70;13.23;;;;;;;;;;773948;180;919209;-64
2023/11/26 03:25:13;;;;;;;20.93;14.40;;;;;;;;;;769019;180;920286;-64
2023/11/26 03:27:39;;;;;;;17.20;11.23;;;;;;;;;;778929;180;929734;-63
2023/11/26 03:30:08;;;;;;;17.12;11.85;;;;;;;;;;772556;180;881142;-70
2023/11/26 03:32:32;;;;;;;20.77;13.20;;;;;;;;;;775572;180;918129;-70
2023/11/26 03:34:57;;;;;;;19.40;12.93;;;;;;;;;;774824;180;920213;-64
2023/11/26 03:37:23;;;;;;;18.93;13.07;;;;;;;;;;773272;181;919464;-64
2023/11/26 03:39:49;;;;;;;23.17;14.17;;;;;;;;;;766954;179;914820;-64
2023/11/26 03:42:15;;;;;;;18.53;12.73;;;;;;;;;;780382;179;918928;-63
2023/11/26 03:44:41;;;;;;;25.33;14.60;;;;;;;;;;774874;180;915280;-70
2023/11/26 03:47:08;;;;;;;18.10;12.90;;;;;;;;;;773096;178;919386;-70
2023/11/26 03:49:33;;;;;;;19.50;13.00;;;;;;;;;;774397;178;918284;-70
2023/11/26 03:51:59;;;;;;;24.20;14.43;;;;;;;;;;777305;179;915763;-70
2023/11/26 03:54:24;;;;;;;23.80;15.13;;;;;;;;;;763074;182;919185;-71
2023/11/26 03:56:50;;;;;;;25.80;13.80;;;;;;;;;;773242;178;912325;-64
2023/11/26 03:59:17;;;;;;;22.30;14.60;;;;;;;;;;779550;180;837451;-71
2023/11/26 04:01:42;;;;;;;29.05;13.88;;;;;;;;;;772471;180;917844;-64
2023/11/26 04:04:08;;;;;;;22.80;13.93;;;;;;;;;;774448;181;919099;-71
2023/11/26 04:06:34;;;;;;;21.98;13.05;;;;;;;;;;778248;181;918337;-64
2023/11/26 04:08:59;;;;;;;22.50;14.30;;;;;;;;;;771944;180;920585;-65
2023/11/26 04:11:25;;;;;;;23.98;13.98;;;;;;;;;;772738;177;919552;-72
2023/11/26 04:13:51;;;;;;;21.50;12.40;;;;;;;;;;772378;178;919365;-65
2023/11/26 04:16:18;;;;;;;24.07;13.63;;;;;;;;;;772554;181;916936;-64
2023/11/26 04:18:43;;;;;;;21.13;13.97;;;;;;;;;;773483;180;919021;-71
2023/11/26 04:21:09;;;;;;;18.13;9.77;;;;;;;;;;775191;176;918042;-69
2023/11/26 04:23:35;;;;;;;17.27;11.70;;;;;;;;;;780025;177;952768;-64
2023/11/26 04:26:00;;;;;;;15.53;9.57;;;;;;;;;;774337;180;921844;-65
2023/11/26 04:28:26;;;;;;;12.30;7.60;;;;;;;;;;769275;178;919169;-69
2023/11/26 04:30:52;;;;;;;11.00;7.10;;;;;;;;;;779763;180;817778;-67
2023/11/26 04:33:18;;;;;;;8.55;5.22;;;;;;;;;;772848;180;927802;-70
2023/11/26 04:35:45;;;;;;;7.87;5.70;;;;;;;;;;771560;178;915879;-70
2023/11/26 04:38:10;;;;;;;8.33;5.37;;;;;;;;;;778923;180;940156;-70
2023/11/26 04:40:35;;;;;;;7.87;5.43;;;;;;;;;;774513;179;918272;-65
2023/11/26 04:43:01;;;;;;;10.27;5.20;;;;;;;;;;769220;179;920739;-66
2023/11/26 04:45:27;;;;;;;9.47;5.50;;;;;;;;;;763204;182;919192;-66
2023/11/26 04:47:53;;;;;;;7.63;5.07;;;;;;;;;;776853;180;917439;-66
2023/11/26 04:50:19;;;;;;;8.70;4.97;;;;;;;;;;771013;180;928401;-66
2023/11/26 04:52:45;;;;;;;13.63;4.60;;;;;;;;;;770949;180;917142;-70
2023/11/26 04:55:12;;;;;;;8.90;4.40;;;;;;;;;;768331;180;915114;-70
2023/11/26 04:57:36;;;;;;;9.03;4.80;;;;;;;;;;775795;178;916214;-71
2023/11/26 05:00:03;;;;;;;10.45;4.90;;;;;;;;;;770209;179;952531;-70
2023/11/26 05:02:32;;;;;;;7.13;3.50;;;;;;;;;;775821;177;916373;-66
2023/11/26 05:04:55;;;;;;;6.70;5.10;;;;;;;;;;771775;180;917920;-69
2023/11/26 05:07:20;;;;;;;8.98;3.10;;;;;;;;;;770717;179;934141;-70
2023/11/26 05:09:46;;;;;;;4.67;2.70;;;;;;;;;;775526;180;823349;-67
2023/11/26 05:12:12;;;;;;;5.80;2.60;;;;;;;;;;775008;179;915828;-70
2023/11/26 05:14:37;;;;;;;4.60;2.50;;;;;;;;;;776080;180;905246;-66
2023/11/26 05:17:04;;;;;;;3.00;1.87;;;;;;;;;;766132;178;915655;-70
2023/11/26 05:19:29;;;;;;;8.80;2.73;;;;;;;;;;778476;181;826553;-70
2023/11/26 05:21:55;;;;;;;4.00;1.77;;;;;;;;;;773162;180;911826;-67
2023/11/26 05:24:21;;;;;;;3.43;2.10;;;;;;;;;;772057;179;917865;-65
2023/11/26 05:26:47;;;;;;;6.13;3.73;;;;;;;;;;779484;180;918121;-69
2023/11/26 05:29:12;;;;;;;3.30;2.30;;;;;;;;;;772978;178;919847;-64
2023/11/26 05:31:38;;;;;;;9.87;5.33;;;;;;;;;;773931;178;920355;-64
2023/11/26 05:34:04;;;;;;;9.90;4.07;;;;;;;;;;783266;176;816643;-65
2023/11/26 05:36:30;;;;;;;6.70;3.73;;;;;;;;;;772630;177;920560;-70
2023/11/26 05:38:56;;;;;;;6.87;3.90;;;;;;;;;;758106;181;918463;-65
2023/11/26 05:41:22;;;;;;;6.43;3.60;;;;;;;;;;772131;180;918004;-69
2023/11/26 05:43:48;;;;;;;6.57;5.07;;;;;;;;;;778289;180;824824;-69
2023/11/26 05:46:14;;;;;;;5.70;4.30;;;;;;;;;;775137;179;880988;-70
2023/11/26 05:48:40;;;;;;;5.75;3.28;;;;;;;;;;771042;180;921720;-69
2023/11/26 05:51:05;;;;;;;4.00;2.40;;;;;;;;;;780995;178;839661;-64
2023/11/26 05:53:31;;;;;;;3.25;2.45;;;;;;;;;;771410;176;948012;-70
2023/11/26 05:55:57;;;;;;;4.43;2.00;;;;;;;;;;759117;180;917210;-64
2023/11/26 05:58:23;;;;;;;4.50;2.60;;;;;;;;;;776732;177;917787;-64
2023/11/26 06:00:48;;;;;;;4.27;2.60;;;;;;;;;;766122;180;919767;-69
2023/11/26 06:03:14;;;;;;;8.43;5.53;;;;;;;;;;774007;180;910113;-63
2023/11/26 06:05:40;;;;;;;3.83;2.50;;;;;;;;;;775113;178;899442;-69
2023/11/26 06:08:06;;;;;;;4.10;2.43;;;;;;;;;;764201;183;917131;-63
2023/11/26 06:10:32;;;;;;;5.57;2.30;;;;;;;;;;755867;184;919041;-64
2023/11/26 06:12:58;;;;;;;3.83;2.63;;;;;;;;;;750724;184;917678;-64
2023/11/26 06:15:25;;;;;;;3.93;2.57;;;;;;;;;;756062;184;917850;-64
2023/11/26 06:17:49;;;;;;;4.67;2.93;;;;;;;;;;732038;187;918020;-69
2023/11/26 06:20:15;;;;;;;5.23;2.63;;;;;;;;;;746724;186;918538;-64
2023/11/26 06:22:42;;;;;;;3.77;2.60;;;;;;;;;;753223;185;913430;-69
2023/11/26 06:25:09;;;;;;;4.65;2.97;;;;;;;;;;740899;188;915813;-63
2023/11/26 06:27:33;;;;;;;4.97;3.08;;;;;;;;;;747297;183;917977;-67
2023/11/26 06:29:59;;;;;;;4.97;2.90;;;;;;;;;;750477;187;917531;-70
2023/11/26 06:32:25;;;;;;;10.00;4.73;;;;;;;;;;771794;178;918096;-63
2023/11/26 06:34:51;;;;;;;13.70;9.80;;;;;;;;;;771869;180;919998;-70
2023/11/26 06:37:17;;;;;;;5.07;2.70;;;;;;;;;;775568;180;877555;-64
2023/11/26 06:39:42;;;;;;;4.83;2.93;;;;;;;;;;779253;180;796930;-64
2023/11/26 06:42:10;;;;;;;5.37;3.00;;;;;;;;;;771079;181;815930;-63
2023/11/26 06:44:34;;;;;;;3.63;2.03;;;;;;;;;;767871;180;919285;-71
2023/11/26 06:47:01;;;;;;;3.37;2.10;;;;;;;;;;773632;177;916876;-69
2023/11/26 06:49:27;;;;;;;5.20;2.83;;;;;;;;;;776874;180;637838;-69
2023/11/26 06:51:53;;;;;;;3.80;2.23;;;;;;;;;;772176;177;1015807;-63
2023/11/26 06:54:17;;;;;;;5.73;2.80;;;;;;;;;;778003;178;915094;-64
2023/11/26 06:56:43;;;;;;;4.57;3.03;;;;;;;;;;776735;177;900356;-70
2023/11/26 06:59:09;;;;;;;3.67;2.60;;;;;;;;;;772967;178;938675;-70
2023/11/26 07:01:35;;;;;;;5.30;3.10;;;;;;;;;;771204;180;909848;-64
2023/11/26 07:04:01;;;;;;;4.90;3.57;;;;;;;;;;779608;180;915023;-63
2023/11/26 07:06:27;;;;;;;15.27;12.60;;;;;;;;;;772544;178;923767;-64
2023/11/26 07:08:52;;;;;;;21.03;15.47;;;;;;;;;;775190;180;771450;-70
2023/11/26 07:11:18;;;;;;;13.80;7.23;;;;;;;;;;779136;180;816183;-69
2023/11/26 07:13:44;;;;;;;21.47;11.73;;;;;;;;;;772665;180;920441;-65
2023/11/26 07:16:10;;;;;;;14.40;9.55;;;;;;;;;;773770;180;920228;-70
2023/11/26 07:18:36;;;;;;;8.13;5.17;;;;;;;;;;776132;181;885020;-63
2023/11/26 07:21:03;;;;;;;27.87;19.07;;;;;;;;;;768716;180;816871;-63
2023/11/26 07:23:28;;;;;;;6.30;3.90;;;;;;;;;;775251;180;918991;-63
2023/11/26 07:25:54;;;;;;;4.18;2.15;;;;;;;;;;776271;180;918786;-69
2023/11/26 07:28:20;;;;;;;4.83;3.17;;;;;;;;;;771228;180;808890;-63
2023/11/26 07:30:46;;;;;;;6.37;3.20;;;;;;;;;;765761;181;913989;-63
2023/11/26 07:33:12;;;;;;;5.60;3.10;;;;;;;;;;770107;180;915730;-64
2023/11/26 07:35:37;;;;;;;4.87;2.85;;;;;;;;;;777651;181;915336;-70
2023/11/26 07:38:04;;;;;;;4.93;3.10;;;;;;;;;;766213;180;915481;-64
2023/11/26 07:40:29;;;;;;;4.40;2.83;;;;;;;;;;752083;180;919764;-68
2023/11/26 07:42:55;;;;;;;5.93;4.60;;;;;;;;;;772534;180;915390;-63
2023/11/26 07:45:21;;;;;;;5.80;2.90;;;;;;;;;;773585;180;919201;-63
2023/11/26 07:47:47;;;;;;;10.67;6.53;;;;;;;;;;764934;180;1023043;-64
2023/11/26 07:50:12;;;;;;;12.70;8.20;;;;;;;;;;777400;178;1021774;-70
2023/11/26 07:52:39;;;;;;;22.30;14.03;;;;;;;;;;773764;179;917854;-63
2023/11/26 07:55:05;;;;;;;30.85;21.23;;;;;;;;;;772914;180;918718;-63
2023/11/26 07:57:31;;;;;;;50.40;29.63;;;;;;;;;;771636;179;913844;-63
2023/11/26 07:59:57;;;;;;;42.03;28.23;;;;;;;;;;779940;179;626382;-63
2023/11/26 08:02:23;;;;;;;24.00;14.07;;;;;;;;;;778768;179;630797;-70
2023/11/26 08:04:53;;;;;;;40.97;23.27;;;;;;;;;;766580;183;633126;-63
2023/11/26 08:07:15;;;;;;;15.63;10.10;;;;;;;;;;781813;177;621271;-62
2023/11/26 08:09:41;;;;;;;42.43;25.63;;;;;;;;;;778537;180;618984;-69
2023/11/26 08:12:12;;;;;;;26.93;20.53;;;;;;;;;;779008;178;639130;-71
2023/11/26 08:14:34;;;;;;;12.60;10.33;;;;;;;;;;780711;181;630891;-70
2023/11/26 08:17:02;;;;;;;32.20;22.97;;;;;;;;;;777100;180;951563;-63
2023/11/26 08:19:26;;;;;;;14.37;10.63;;;;;;;;;;779101;177;678408;-63
2023/11/26 08:21:55;;;;;;;13.07;8.60;;;;;;;;;;775670;179;817355;-70
2023/11/26 08:24:19;;;;;;;9.93;7.13;;;;;;;;;;779017;180;630971;-62
2023/11/26 08:26:46;;;;;;;17.63;11.17;;;;;;;;;;769528;178;919351;-69
2023/11/26 08:29:10;;;;;;;26.15;13.65;;;;;;;;;;771496;180;816402;-63
2023/11/26 08:31:39;;;;;;;15.37;11.60;;;;;;;;;;775829;178;853486;-69
2023/11/26 08:34:05;;;;;;;8.77;7.00;;;;;;;;;;775062;178;642705;-64
2023/11/26 08:36:33;;;;;;;6.23;3.30;;;;;;;;;;772529;178;816653;-63
2023/11/26 08:38:58;;;;;;;7.90;5.67;;;;;;;;;;776462;180;816433;-64
2023/11/26 08:41:25;;;;;;;8.80;5.90;;;;;;;;;;770940;181;796387;-64
2023/11/26 08:43:50;;;;;;;6.00;5.40;;;;;;;;;;772519;180;917801;-70
2023/11/26 08:46:18;;;;;;;11.03;5.23;;;;;;;;;;770592;180;815456;-71
2023/11/26 08:48:45;;;;;;;6.23;3.30;;;;;;;;;;777014;180;919153;-65
2023/11/26 08:51:11;;;;;;;5.00;2.53;;;;;;;;;;769044;180;819194;-71
2023/11/26 08:53:37;;;;;;;7.83;4.87;;;;;;;;;;773254;180;816203;-70
2023/11/26 08:56:03;;;;;;;4.67;2.93;;;;;;;;;;774728;179;817275;-70
2023/11/26 08:58:29;;;;;;;58.60;21.93;;;;;;;;;;771477;180;920852;-71
2023/11/26 09:00:56;;;;;;;42.87;15.67;;;;;;;;;;768436;180;917753;-70
2023/11/26 09:03:22;;;;;;;4.60;2.93;;;;;;;;;;768916;180;919161;-63
2023/11/26 09:05:46;;;;;;;6.90;3.33;;;;;;;;;;777415;181;918968;-63
2023/11/26 09:08:12;;;;;;;7.20;3.93;;;;;;;;;;772240;179;918896;-70
2023/11/26 09:10:38;;;;;;;4.57;2.53;;;;;;;;;;775378;180;917557;-70
2023/11/26 09:13:04;;;;;;;3.55;2.30;;;;;;;;;;778360;180;918947;-67
2023/11/26 09:15:29;;;;;;;9.97;5.00;;;;;;;;;;775535;177;816402;-67
2023/11/26 09:17:55;;;;;;;18.73;11.02;;;;;;;;;;767942;180;919464;-70
2023/11/26 09:20:21;;;;;;;5.63;3.30;;;;;;;;;;766196;178;907964;-70
2023/11/26 09:22:48;;;;;;;5.63;3.33;;;;;;;;;;763653;178;916215;-67
2023/11/26 09:25:13;;;;;;;4.30;2.53;;;;;;;;;;772107;177;915559;-69
2023/11/26 09:27:40;;;;;;;10.13;6.03;;;;;;;;;;776464;177;919794;-70
2023/11/26 09:30:05;;;;;;;4.77;2.17;;;;;;;;;;760153;181;918627;-67
2023/11/26 09:32:31;;;;;;;3.27;2.17;;;;;;;;;;768624;179;917239;-70
2023/11/26 09:34:57;;;;;;;5.20;2.70;;;;;;;;;;771790;180;919686;-70
2023/11/26 09:37:23;;;;;;;4.73;2.70;;;;;;;;;;777298;178;943582;-68
2023/11/26 09:39:48;;;;;;;3.70;2.43;;;;;;;;;;769466;177;916572;-70
2023/11/26 09:42:14;;;;;;;5.10;2.77;;;;;;;;;;776820;178;918914;-70
2023/11/26 09:44:41;;;;;;;5.03;2.40;;;;;;;;;;766820;180;920675;-70
2023/11/26 09:47:07;;;;;;;6.67;3.50;;;;;;;;;;770435;178;814652;-70
2023/11/26 09:49:33;;;;;;;4.43;3.10;;;;;;;;;;761135;181;923640;-67
2023/11/26 09:51:58;;;;;;;9.73;5.77;;;;;;;;;;774487;177;1014838;-70
2023/11/26 09:54:24;;;;;;;3.00;1.90;;;;;;;;;;771302;180;939573;-68
2023/11/26 09:56:52;;;;;;;5.40;4.20;;;;;;;;;;772207;180;923582;-67
2023/11/26 09:59:22;;;;;;;16.17;10.70;;;;;;;;;;771829;178;923212;-68
2023/11/26 10:01:48;;;;;;;6.70;2.90;;;;;;;;;;777100;180;917500;-71
2023/11/26 10:04:15;;;;;;;5.03;3.73;;;;;;;;;;771665;178;819037;-69
2023/11/26 10:06:40;;;;;;;4.17;2.67;;;;;;;;;;772701;179;1124245;-69
2023/11/26 10:09:06;;;;;;;22.80;11.53;;;;;;;;;;780054;180;921643;-68
2023/11/26 10:11:32;;;;;;;20.13;9.67;;;;;;;;;;770453;180;803882;-68
2023/11/26 10:13:58;;;;;;;22.05;11.27;;;;;;;;;;771671;177;896213;-70
2023/11/26 10:16:29;;;;;;;15.03;8.20;;;;;;;;;;770022;178;913440;-71
2023/11/26 10:18:55;;;;;;;5.83;2.90;;;;;;;;;;764326;180;920803;-69
2023/11/26 10:21:21;;;;;;;8.38;5.03;;;;;;;;;;770911;180;916198;-71
2023/11/26 10:23:47;;;;;;;8.33;4.33;;;;;;;;;;775783;177;924937;-68
2023/11/26 10:26:13;;;;;;;10.77;7.10;;;;;;;;;;781634;180;769939;-70
2023/11/26 10:28:39;;;;;;;3.53;1.90;;;;;;;;;;764477;180;913519;-70
2023/11/26 10:31:05;;;;;;;2.30;1.40;;;;;;;;;;770196;180;919101;-70
2023/11/26 10:33:31;;;;;;;3.23;2.03;;;;;;;;;;771204;180;940485;-68
2023/11/26 10:35:57;;;;;;;4.90;2.57;;;;;;;;;;770362;180;814126;-69
2023/11/26 10:38:27;;;;;;;90.90;40.47;;;;;;;;;;760717;181;931883;-69
2023/11/26 10:40:51;;;;;;;53.63;23.92;;;;;;;;;;763577;180;918914;-70
2023/11/26 10:43:17;;;;;;;13.73;8.10;;;;;;;;;;777081;180;914440;-70
2023/11/26 10:45:43;;;;;;;8.30;4.57;;;;;;;;;;764376;181;919196;-70
2023/11/26 10:48:10;;;;;;;4.37;2.67;;;;;;;;;;766001;180;918504;-69
2023/11/26 10:50:42;;;;;;;5.83;4.13;;;;;;;;;;767763;180;821662;-69
2023/11/26 10:53:10;;;;;;;4.60;2.40;;;;;;;;;;776873;179;919615;-68
2023/11/26 10:55:37;;;;;;;4.47;1.97;;;;;;;;;;770751;177;946604;-69
2023/11/26 10:58:05;;;;;;;3.33;1.70;;;;;;;;;;765208;179;917823;-69
2023/11/26 11:00:32;;;;;;;2.93;1.80;;;;;;;;;;766233;180;846675;-71
2023/11/26 11:02:57;;;;;;;3.07;1.87;;;;;;;;;;773277;177;933440;-68
2023/11/26 11:05:23;;;;;;;3.53;1.93;;;;;;;;;;769762;180;943633;-69
2023/11/26 11:07:48;;;;;;;3.43;2.17;;;;;;;;;;769829;181;914952;-69
2023/11/26 11:10:31;;;;;;;7.10;5.13;;;;;;;;;;780957;180;927423;-69
2023/11/26 11:12:55;;;;;;;3.20;1.83;;;;;;;;;;771760;180;919354;-68
2023/11/26 11:15:21;;;;;;;5.50;2.17;;;;;;;;;;768109;178;919614;-69
2023/11/26 11:17:47;;;;;;;5.43;3.30;;;;;;;;;;774737;178;917923;-67
2023/11/26 11:20:13;;;;;;;3.73;1.97;;;;;;;;;;774832;180;918195;-68
2023/11/26 11:22:41;;;;;;;5.97;2.30;;;;;;;;;;772739;181;917747;-67
2023/11/26 11:25:05;;;;;;;2.97;1.73;;;;;;;;;;772430;178;922191;-67
2023/11/26 11:27:37;;;;;;;8.63;2.00;;;;;;;;;;778766;180;920373;-67
2023/11/26 11:30:03;;;;;;;3.57;2.10;;;;;;;;;;774524;180;919920;-66
2023/11/26 11:32:29;;;;;;;3.30;2.30;;;;;;;;;;775811;179;836985;-67
2023/11/26 11:34:54;;;;;;;3.25;1.70;;;;;;;;;;774143;178;897713;-66
2023/11/26 11:37:20;;;;;;;2.87;1.67;;;;;;;;;;773184;180;729131;-67
2023/11/26 11:39:49;;;;;;;3.53;1.80;;;;;;;;;;766200;179;917199;-67
2023/11/26 11:42:13;;;;;;;6.62;3.03;;;;;;;;;;768595;180;931349;-68
2023/11/26 11:44:40;;;;;;;4.37;1.83;;;;;;;;;;779329;178;920164;-68
2023/11/26 11:47:05;;;;;;;2.60;1.50;;;;;;;;;;773534;180;901952;-66
2023/11/26 11:49:36;;;;;;;5.50;2.53;;;;;;;;;;772693;181;918324;-67
2023/11/26 11:52:03;;;;;;;2.80;1.60;;;;;;;;;;763212;180;921657;-66
2023/11/26 11:54:34;;;;;;;3.30;1.80;;;;;;;;;;765406;180;815659;-66
2023/11/26 11:57:00;;;;;;;5.00;3.50;;;;;;;;;;768127;179;931563;-66
2023/11/26 11:59:26;;;;;;;4.10;2.13;;;;;;;;;;773680;178;916274;-67
2023/11/26 12:01:51;;;;;;;4.13;2.40;;;;;;;;;;779602;180;813781;-65
2023/11/26 12:04:17;;;;;;;7.43;4.27;;;;;;;;;;770022;178;813947;-68
2023/11/26 12:06:44;;;;;;;20.63;8.50;;;;;;;;;;772448;181;920060;-67
2023/11/26 12:09:12;;;;;;;15.13;8.23;;;;;;;;;;772074;178;906905;-66
2023/11/26 12:11:41;;;;;;;7.67;4.43;;;;;;;;;;776668;180;816304;-66
2023/11/26 12:14:07;;;;;;;6.40;2.20;;;;;;;;;;772167;177;911378;-65
2023/11/26 12:16:33;;;;;;;4.45;2.25;;;;;;;;;;771807;178;918252;-66
2023/11/26 12:18:59;;;;;;;5.87;3.43;;;;;;;;;;776738;179;922121;-66
2023/11/26 12:21:25;;;;;;;4.30;2.33;;;;;;;;;;774713;178;817809;-66
2023/11/26 12:23:51;;;;;;;4.93;2.27;;;;;;;;;;770685;180;917654;-66
2023/11/26 12:26:16;;;;;;;2.83;1.70;;;;;;;;;;773712;180;915264;-68
2023/11/26 12:28:43;;;;;;;2.90;1.50;;;;;;;;;;778292;177;920198;-66
2023/11/26 12:31:09;;;;;;;3.80;2.63;;;;;;;;;;766452;180;916997;-67
2023/11/26 12:33:35;;;;;;;3.53;1.90;;;;;;;;;;767102;180;1127177;-67
2023/11/26 12:36:01;;;;;;;3.07;2.00;;;;;;;;;;781605;178;619023;-65
2023/11/26 12:38:26;;;;;;;5.60;2.17;;;;;;;;;;780307;177;628001;-68
2023/11/26 12:40:52;;;;;;;4.80;2.10;;;;;;;;;;777430;178;626260;-67
2023/11/26 12:43:18;;;;;;;4.87;1.97;;;;;;;;;;785270;178;628633;-68
2023/11/26 12:45:45;;;;;;;2.90;1.70;;;;;;;;;;769243;177;628738;-68
2023/11/26 12:48:10;;;;;;;3.57;2.10;;;;;;;;;;764239;179;995916;-65
2023/11/26 12:50:40;;;;;;;2.55;1.52;;;;;;;;;;771274;179;917186;-65
2023/11/26 12:53:05;;;;;;;3.77;1.90;;;;;;;;;;762066;184;919093;-64
2023/11/26 12:55:31;;;;;;;5.33;1.73;;;;;;;;;;770630;178;917668;-68
2023/11/26 12:57:57;;;;;;;3.60;2.00;;;;;;;;;;775678;180;919500;-64
2023/11/26 13:00:23;;;;;;;2.90;1.77;;;;;;;;;;780332;180;814731;-66
2023/11/26 13:02:49;;;;;;;3.33;1.97;;;;;;;;;;770507;181;918531;-68
2023/11/26 13:05:20;;;;;;;4.00;2.20;;;;;;;;;;774550;180;818181;-64
2023/11/26 13:07:46;;;;;;;3.07;1.90;;;;;;;;;;773529;180;916856;-63
2023/11/26 13:10:12;;;;;;;7.47;2.43;;;;;;;;;;776034;180;918303;-66
2023/11/26 13:12:44;;;;;;;4.63;2.57;;;;;;;;;;771777;180;1016169;-65
2023/11/26 13:15:13;;;;;;;4.65;3.35;;;;;;;;;;770640;180;918062;-67
2023/11/26 13:17:36;;;;;;;6.33;3.50;;;;;;;;;;777723;179;873335;-68
2023/11/26 13:20:02;;;;;;;7.15;4.00;;;;;;;;;;775525;177;928292;-63
2023/11/26 13:22:28;;;;;;;6.97;3.70;;;;;;;;;;753901;182;935139;-67
2023/11/26 13:24:54;;;;;;;7.30;3.57;;;;;;;;;;774357;179;819417;-63
2023/11/26 13:27:20;;;;;;;4.83;3.17;;;;;;;;;;776437;180;630575;-64
2023/11/26 13:29:45;;;;;;;4.72;3.20;;;;;;;;;;776268;180;819120;-68
2023/11/26 13:32:12;;;;;;;5.70;2.90;;;;;;;;;;766998;180;868633;-64
2023/11/26 13:34:38;;;;;;;6.20;3.67;;;;;;;;;;778650;180;807655;-66
2023/11/26 13:37:04;;;;;;;5.13;3.80;;;;;;;;;;777971;178;636624;-67
2023/11/26 13:39:32;;;;;;;3.93;2.37;;;;;;;;;;777273;180;636015;-64
2023/11/26 13:41:54;;;;;;;8.73;5.15;;;;;;;;;;779923;180;634251;-64
2023/11/26 13:44:20;;;;;;;8.37;6.17;;;;;;;;;;776483;181;624985;-64
2023/11/26 13:46:46;;;;;;;5.67;2.63;;;;;;;;;;765446;181;919028;-66
2023/11/26 13:49:12;;;;;;;4.77;2.80;;;;;;;;;;771756;180;918054;-64
2023/11/26 13:51:38;;;;;;;3.67;2.03;;;;;;;;;;771485;181;816887;-67
2023/11/26 13:54:04;;;;;;;6.97;3.80;;;;;;;;;;764853;180;919323;-65
2023/11/26 13:56:29;;;;;;;4.63;2.90;;;;;;;;;;773051;180;924287;-67
2023/11/26 13:58:56;;;;;;;4.17;2.40;;;;;;;;;;781910;179;744409;-66
2023/11/26 14:01:22;;;;;;;4.53;2.57;;;;;;;;;;770933;181;922971;-66
2023/11/26 14:03:48;;;;;;;6.53;2.20;;;;;;;;;;770178;180;918172;-67
2023/11/26 14:06:13;;;;;;;6.47;4.13;;;;;;;;;;778890;180;917501;-67
2023/11/26 14:08:39;;;;;;;4.10;2.80;;;;;;;;;;778124;178;935710;-64
2023/11/26 14:11:05;;;;;;;7.90;5.00;;;;;;;;;;774028;177;918643;-65
2023/11/26 14:13:31;;;;;;;12.23;6.00;;;;;;;;;;777023;178;918411;-67
2023/11/26 14:15:57;;;;;;;6.30;4.60;;;;;;;;;;771641;177;918710;-67